FW0763 Weather Reports


time (UTC)temp
C
wind
direction
speed
KPH
gust
KPH
rain 1hr
cm
rain 24hr
cm
rain mn
cm
humidity
%
barometer
mb
20200229091816 10 112 4.8 6.4 0.00 0.00 0.00 60 1015.8
20200229090816 10 112 6.4 8.0 0.00 0.00 0.00 60 1016.0
20200229085816 10 112 3.2 4.8 0.00 0.00 0.00 60 1016.2
20200229084817 11 112 3.2 4.8 0.00 0.00 0.00 59 1016.2
20200229083817 11 112 6.4 8.0 0.00 0.00 0.00 59 1016.3
20200229082817 11 112 6.4 8.0 0.00 0.00 0.00 58 1016.4
20200229081817 11 135 4.8 6.4 0.00 0.00 0.00 58 1016.4
20200229080817 11 112 6.4 8.0 0.00 0.00 0.00 59 1016.4
20200229075817 11 112 4.8 6.4 0.00 0.00 0.00 59 1016.5
20200229074816 10 112 6.4 6.4 0.00 0.00 0.00 60 1016.6
20200229073817 10 112 6.4 8.0 0.00 0.00 0.00 60 1016.7
20200229072837 10 90 3.2 6.4 0.00 0.00 0.00 60 1016.8
20200229071817 10 427 3.2 3.2 0.00 0.00 0.00 62 1017.0
20200229070816 10 0.0 0.0 0.00 0.00 0.00 62 1017.0
20200229065816 11 0.0 0.0 0.00 0.00 0.00 68 1016.9
20200229064815 11 135 1.6 1.6 0.00 0.00 0.00 62 1016.8
20200229063815 11 135 3.2 4.8 0.00 0.00 0.00 60 1016.9
20200229062815 11 135 4.8 6.4 0.00 0.00 0.00 59 1016.8
20200229061815 11 135 4.8 6.4 0.00 0.00 0.00 58 1017.0
20200229060815 12 157 1.6 3.2 0.00 0.00 0.00 57 1017.2
20200229055816 12 157 3.2 4.8 0.00 0.00 0.00 55 1017.3
20200229054816 12 135 1.6 3.2 0.00 0.00 0.00 57 1017.3
20200229053816 13 135 1.6 1.6 0.00 0.00 0.00 56 1017.3
20200229052816 13 135 3.2 4.8 0.00 0.00 0.00 53 1017.2
20200229051815 14 112 1.6 3.2 0.00 0.00 0.00 52 1017.0
20200229050815 14 135 3.2 4.8 0.00 0.00 0.00 50 1016.8
20200229045815 14 90 4.8 6.4 0.00 0.00 0.00 48 1016.8
20200229044815 14 112 4.8 6.4 0.00 0.00 0.00 49 1016.8
20200229043815 14 112 4.8 6.4 0.00 0.00 0.00 48 1016.7
20200229042815 15 112 4.8 6.4 0.00 0.00 0.00 48 1016.8
20200229041815 15 112 4.8 6.4 0.00 0.00 0.00 49 1016.9
20200229040815 15 427 1.6 3.2 0.00 0.00 0.00 49 1016.9
20200229035816 15 427 3.2 4.8 0.00 0.00 0.00 46 1017.2
20200229034815 16 427 3.2 3.2 0.00 0.00 0.00 46 1017.1
20200229033815 16 427 3.2 3.2 0.00 0.00 0.00 45 1017.0
20200229032815 16 427 1.6 1.6 0.00 0.00 0.00 44 1017.0
20200229031815 17 427 3.2 4.8 0.00 0.00 0.00 43 1016.9
20200229030815 17 427 1.6 3.2 0.00 0.00 0.00 40 1016.8
20200229025817 18 427 1.6 1.6 0.00 0.00 0.00 39 1016.7
20200229024817 18 427 1.6 3.2 0.00 0.00 0.00 39 1016.6
20200229023817 18 90 1.6 1.6 0.00 0.00 0.00 35 1016.2
20200229022817 20 0.0 0.0 0.00 0.00 0.00 34 1016.2
20200229021817 20 90 1.6 3.2 0.00 0.00 0.00 34 1016.0
20200229020817 21 90 3.2 3.2 0.00 0.00 0.00 31 1015.9
20200229015817 21 427 3.2 4.8 0.00 0.00 0.00 30 1016.0
20200229014817 22 427 3.2 3.2 0.00 0.00 0.00 27 1016.1
20200229013817 23 427 3.2 4.8 0.00 0.00 0.00 27 1016.1
20200229012817 23 427 3.2 4.8 0.00 0.00 0.00 26 1016.2
20200229011817 24 427 3.2 8.0 0.00 0.00 0.00 24 1016.1
20200229010815 25 90 4.8 6.4 0.00 0.00 0.00 24 1016.2
20200229005817 25 427 4.8 6.4 0.00 0.00 0.00 26 1016.2
20200229004817 25 427 4.8 6.4 0.00 0.00 0.00 25 1016.2
20200229003817 26 427 6.4 8.0 0.00 0.00 0.00 24 1016.3
20200229002817 26 90 4.8 8.0 0.00 0.00 0.00 24 1016.2
20200229001817 27 0.0 1.6 0.00 0.00 0.00 22 1016.2
20200229000818 27 315 4.8 9.7 0.00 0.00 0.00 18 1016.2
20200228235817 27 315 6.4 8.0 0.00 0.00 0.00 17 1016.3
20200228234817 27 337 8.0 9.7 0.00 0.00 0.00 17 1016.4
20200228233817 28 315 8.0 11.3 0.00 0.00 0.00 16 1016.4
20200228232817 28 337 9.7 12.9 0.00 0.00 0.00 16 1016.2
20200228231816 28 315 6.4 9.7 0.00 0.00 0.00 16 1016.1
20200228230817 28 337 8.0 9.7 0.00 0.00 0.00 16 1016.3
20200228225817 28 315 8.0 12.9 0.00 0.00 0.00 16 1016.2
20200228224817 28 337 12.9 16.1 0.00 0.00 0.00 16 1016.3
20200228223817 28 337 8.0 11.3 0.00 0.00 0.00 15 1016.2
20200228222817 29 337 9.7 12.9 0.00 0.00 0.00 16 1016.3
20200228221817 29 315 9.7 12.9 0.00 0.00 0.00 15 1016.5
20200228220817 29 337 9.7 11.3 0.00 0.00 0.00 13 1016.5
20200228215817 30 337 4.8 9.7 0.00 0.00 0.00 12 1016.6
20200228214816 30 0.0 3.2 0.00 0.00 0.00 12 1016.5
20200228213816 29 360 1.6 3.2 0.00 0.00 0.00 13 1016.5
20200228212817 29 337 6.4 9.7 0.00 0.00 0.00 13 1016.6
20200228211816 30 337 9.7 12.9 0.00 0.00 0.00 14 1016.7
20200228210817 30 337 8.0 11.3 0.00 0.00 0.00 13 1016.7
20200228205818 30 405 1.6 3.2 0.00 0.00 0.00 13 1016.5
20200228204816 30 337 4.8 8.0 0.00 0.00 0.00 13 1016.5
20200228203817 30 337 4.8 6.4 0.00 0.00 0.00 13 1016.5
20200228202816 30 270 3.2 6.4 0.00 0.00 0.00 12 1016.6
20200228201816 30 270 3.2 6.4 0.00 0.00 0.00 14 1016.7
20200228200817 29 427 3.2 8.0 0.00 0.00 0.00 16 1017.0
20200228195816 29 225 3.2 4.8 0.00 0.00 0.00 16 1017.0
20200228194816 28 180 3.2 6.4 0.00 0.00 0.00 15 1017.1
20200228193816 28 157 4.8 6.4 0.00 0.00 0.00 16 1017.3
20200228192816 27 315 3.2 4.8 0.00 0.00 0.00 18 1017.5
20200228191817 27 180 3.2 4.8 0.00 0.00 0.00 19 1017.7
20200228190816 27 270 3.2 4.8 0.00 0.00 0.00 19 1017.9
20200228185816 26 405 3.2 3.2 0.00 0.00 0.00 22 1018.2
20200228184816 26 360 4.8 8.0 0.00 0.00 0.00 22 1018.3
20200228183816 26 360 3.2 4.8 0.00 0.00 0.00 23 1018.6
20200228182816 26 427 3.2 12.9 0.00 0.00 0.00 22 1018.6
20200228181816 25 180 3.2 4.8 0.00 0.00 0.00 22 1018.7
20200228180817 25 90 3.2 4.8 0.00 0.00 0.00 27 1018.5
20200228175816 24 0.0 1.6 0.00 0.00 0.00 28 1018.4
20200228174816 23 360 1.6 3.2 0.00 0.00 0.00 30 1018.6
20200228173816 23 112 3.2 4.8 0.00 0.00 0.00 31 1018.4
20200228172816 22 90 4.8 8.0 0.00 0.00 0.00 33 1018.5
20200228171816 22 427 3.2 6.4 0.00 0.00 0.00 34 1018.6
20200228170816 22 90 4.8 8.0 0.00 0.00 0.00 35 1018.7
20200228165816 21 90 4.8 6.4 0.00 0.00 0.00 37 1018.6
20200228164817 20 112 4.8 8.0 0.00 0.00 0.00 39 1018.7
20200228163816 20 90 3.2 4.8 0.00 0.00 0.00 42 1018.7
20200228162816 19 112 4.8 6.4 0.00 0.00 0.00 45 1018.7
20200228161817 18 90 3.2 4.8 0.00 0.00 0.00 49 1018.5
20200228160816 17 90 6.4 8.0 0.00 0.00 0.00 53 1018.3
20200228155816 16 90 3.2 4.8 0.00 0.00 0.00 55 1018.5
20200228154816 15 90 1.6 3.2 0.00 0.00 0.00 58 1018.3
20200228153816 15 112 3.2 4.8 0.00 0.00 0.00 60 1018.1
20200228152818 14 112 4.8 6.4 0.00 0.00 0.00 63 1018.1
20200228151816 13 112 6.4 8.0 0.00 0.00 0.00 65 1017.9
20200228150816 12 90 3.2 4.8 0.00 0.00 0.00 67 1017.8
20200228145816 12 90 3.2 4.8 0.00 0.00 0.00 69 1017.7
20200228144816 11 135 4.8 6.4 0.00 0.00 0.00 71 1017.4
20200228143815 11 135 4.8 6.4 0.00 0.00 0.00 72 1017.2
20200228142816 11 112 6.4 6.4 0.00 0.00 0.00 73 1017.3
20200228141816 10 112 4.8 6.4 0.00 0.00 0.00 75 1017.3
20200228140816 10 135 4.8 6.4 0.00 0.00 0.00 75 1017.1
20200228135816 10 427 3.2 4.8 0.00 0.00 0.00 75 1017.3
20200228134815 10 0.0 0.0 0.00 0.00 0.00 76 1017.1
20200228133817 10 0.0 0.0 0.00 0.00 0.00 76 1017.0
20200228132816 10 0.0 0.0 0.00 0.00 0.00 77 1016.9
20200228131816 10 135 3.2 4.8 0.00 0.00 0.00 76 1016.8
20200228130816 10 135 4.8 6.4 0.00 0.00 0.00 75 1016.8
20200228125816 10 157 4.8 4.8 0.00 0.00 0.00 74 1016.7
20200228124816 10 112 3.2 4.8 0.00 0.00 0.00 73 1016.7
20200228123815 10 135 3.2 4.8 0.00 0.00 0.00 73 1016.6
20200228122816 10 112 4.8 4.8 0.00 0.00 0.00 73 1016.7
20200228121817 10 135 3.2 3.2 0.00 0.00 0.00 74 1016.7
20200228120816 10 135 4.8 6.4 0.00 0.00 0.00 74 1016.6
20200228115815 10 135 4.8 4.8 0.00 0.00 0.00 72 1016.6
20200228114815 10 135 3.2 4.8 0.00 0.00 0.00 73 1016.5
20200228113815 10 135 1.6 3.2 0.00 0.00 0.00 72 1016.5
20200228112815 11 0.0 0.0 0.00 0.00 0.00 71 1016.6
20200228111815 11 0.0 0.0 0.00 0.00 0.00 70 1016.5
20200228110815 11 135 3.2 4.8 0.00 0.00 0.00 68 1016.6
20200228105815 11 112 6.4 8.0 0.00 0.00 0.00 67 1016.5
20200228104816 11 112 6.4 8.0 0.00 0.00 0.00 66 1016.4
20200228103816 11 112 4.8 6.4 0.00 0.00 0.00 66 1016.5
20200228102815 11 112 4.8 6.4 0.00 0.00 0.00 66 1016.3
20200228101815 11 112 3.2 4.8 0.00 0.00 0.00 66 1016.2
20200228100821 11 135 1.6 3.2 0.00 0.00 0.00 66 1016.1
20200228095815 11 135 1.6 3.2 0.00 0.00 0.00 66 1016.0
20200228094815 11 135 3.2 4.8 0.00 0.00 0.00 70 1016.2
20200228093815 11 135 4.8 4.8 0.00 0.00 0.00 66 1016.2
20200228092815 12 135 3.2 4.8 0.00 0.00 0.00 65 1016.1